KBHB

Hancock County-Bar Harbor Airport

Bar Harbor, Maine, USA
KBHB 211720Z 2118/2218 15005KT P6SM SKC FM220700 12003KT P6SM VCSH BKN005 FM221100 10005KT 5SM -SHRA BR OVC007 FM221400 12006KT 5SM -SHRA OVC003
Issued Valid From Valid To
Jul-21 @ 17:20 UTC
(6 hours ago)
Jul-21 @ 18:00 UTC
(5 hours ago)
Jul-22 @ 18:00 UTC
(in 19 hours)
Jul-21 @ 18:00 to Jul-22 @ 07:00
KBHB 211720Z 2118/2218 15005KT P6SM SKC
Wind Visibility Clouds
150° at 5 knots Greater than 6 miles
  • Clear skies
From Jul-22 @ 07:00 to Jul-22 @ 11:00
FM220700 12003KT P6SM VCSH BKN005
Wind Visibility Clouds
120° at 3 knots Greater than 6 miles
  • Broken at 500' AGL
From Jul-22 @ 11:00 to Jul-22 @ 14:00
FM221100 10005KT 5SM -SHRA BR OVC007
Wind Visibility Clouds Conditions
100° at 5 knots 5 miles
  • Overcast at 700' AGL
  • Light Rain
  • Mist
From Jul-22 @ 14:00 to Jul-22 @ 18:00
FM221400 12006KT 5SM -SHRA OVC003
Wind Visibility Clouds Conditions
120° at 6 knots 5 miles
  • Overcast at 300' AGL
  • Light Rain
KBHB 211720Z 2118/2218 15005KT P6SM SKC FM220700 12003KT P6SM VCSH BKN005 FM221100 10005KT 5SM -SHRA BR OVC007 FM221400 12006KT 5SM -SHRA OVC003
Issued Jul-21 @ 17:20 UTC
(6 hours ago)
Valid From Jul-21 @ 18:00 UTC
(5 hours ago)
Valid To Jul-22 @ 18:00 UTC
(in 19 hours)
Jul-21 @ 18:00 - Jul-22 @ 07:00
Wind Visibility
150° at 5 knots Greater than 6 miles
Clouds
  • Clear skies
From Jul-22 @ 07:00 - Jul-22 @ 11:00
Wind Visibility
120° at 3 knots Greater than 6 miles
Clouds
  • Broken at 500' AGL
From Jul-22 @ 11:00 - Jul-22 @ 14:00
Wind Visibility
100° at 5 knots 5 miles
Clouds
  • Overcast at 700' AGL
Conditions
  • Light Rain
  • Mist
From Jul-22 @ 14:00 - Jul-22 @ 18:00
Wind Visibility
120° at 6 knots 5 miles
Clouds
  • Overcast at 300' AGL
Conditions
  • Light Rain